createdAt,value
2023-01-19T00:01:18.288Z,99830.38
2023-01-19T00:06:21.278Z,99827.84
2023-01-19T00:11:25.322Z,99836.63
2023-01-19T00:16:26.731Z,99827.19
2023-01-19T00:21:28.326Z,99826.16
2023-01-19T00:26:29.734Z,99818.69
2023-01-19T00:31:34.074Z,99811.00
2023-01-19T00:36:35.664Z,99819.50
2023-01-19T00:41:56.623Z,99819.25
2023-01-19T00:46:58.156Z,99807.44
2023-01-19T00:51:59.621Z,99816.78
2023-01-19T00:57:01.449Z,99814.38
2023-01-19T01:02:03.982Z,99815.22
2023-01-19T01:07:06.266Z,99808.47
2023-01-19T01:12:13.883Z,99805.88
2023-01-19T01:17:15.542Z,99799.69
2023-01-19T01:22:17.244Z,99798.88
2023-01-19T01:27:18.668Z,99793.06
2023-01-19T01:32:20.835Z,99791.69
2023-01-19T01:37:22.236Z,99795.03
2023-01-19T01:42:31.819Z,99800.59
2023-01-19T01:47:43.558Z,99782.66
2023-01-19T01:53:07.135Z,99806.06
2023-01-19T01:58:11.370Z,99810.69
2023-01-19T02:03:12.888Z,99825.59
2023-01-19T02:08:36.009Z,99820.41
2023-01-19T02:13:43.744Z,99815.38
2023-01-19T02:18:45.384Z,99813.59
2023-01-19T02:23:52.515Z,99820.28
2023-01-19T02:29:03.675Z,99808.50
2023-01-19T02:34:06.991Z,99815.47
2023-01-19T02:39:10.620Z,99819.84
2023-01-19T02:44:14.327Z,99817.38
2023-01-19T02:49:15.704Z,99819.66
2023-01-19T02:54:39.185Z,99823.06
2023-01-19T03:00:01.383Z,99824.06
2023-01-19T03:05:45.020Z,99838.31
2023-01-19T03:11:07.925Z,99832.31
2023-01-19T03:16:22.495Z,99835.53
2023-01-19T03:21:27.635Z,99839.66
2023-01-19T03:26:31.834Z,99851.88
2023-01-19T03:31:34.856Z,99858.44
2023-01-19T03:36:42.030Z,99857.88
2023-01-19T03:41:47.891Z,99851.97
2023-01-19T03:46:50.392Z,99855.78
2023-01-19T03:51:55.455Z,99868.69
2023-01-19T03:56:56.839Z,99865.47
2023-01-19T04:01:58.537Z,99863.81
2023-01-19T04:07:00.058Z,99860.84
2023-01-19T04:12:01.939Z,99863.66
2023-01-19T04:17:03.340Z,99876.44
2023-01-19T04:22:04.830Z,99866.22
2023-01-19T04:27:06.289Z,99892.44
2023-01-19T04:32:07.905Z,99879.69
2023-01-19T04:37:09.545Z,99873.53
2023-01-19T04:42:10.965Z,99866.09
2023-01-19T04:47:12.354Z,99868.81
2023-01-19T04:52:13.713Z,99868.88
2023-01-19T04:57:15.128Z,99879.06
2023-01-19T05:02:17.632Z,99885.09
2023-01-19T05:07:19.065Z,99893.69
2023-01-19T05:12:20.875Z,99893.75
2023-01-19T05:17:22.334Z,99902.13
2023-01-19T05:22:24.336Z,99911.69
2023-01-19T05:27:25.720Z,99912.44
2023-01-19T05:32:27.192Z,99916.78
2023-01-19T05:37:28.726Z,99923.47
2023-01-19T05:42:32.088Z,99937.78
2023-01-19T05:47:34.249Z,99934.69
2023-01-19T05:52:35.655Z,99933.38
2023-01-19T05:57:39.473Z,99943.00
2023-01-19T06:02:40.942Z,99942.94
2023-01-19T06:07:42.635Z,99950.91
2023-01-19T06:12:44.012Z,99955.47
2023-01-19T06:17:45.913Z,99966.47
2023-01-19T06:22:47.971Z,99969.44
2023-01-19T06:27:49.419Z,99969.72
2023-01-19T06:32:54.776Z,99975.81
2023-01-19T06:37:57.685Z,99991.91
2023-01-19T06:42:59.416Z,99997.91
2023-01-19T06:48:02.326Z,100012.75
2023-01-19T06:53:09.525Z,100021.22
2023-01-19T06:58:11.912Z,100038.34
2023-01-19T07:03:20.745Z,100044.31
2023-01-19T07:08:24.980Z,100064.06
2023-01-19T07:13:26.416Z,100080.25
2023-01-19T07:18:28.079Z,100092.69
2023-01-19T07:23:30.765Z,100092.94
2023-01-19T07:28:32.926Z,100092.84
2023-01-19T07:33:35.950Z,100105.72
2023-01-19T07:38:37.616Z,100113.22
2023-01-19T07:43:39.086Z,100112.28
2023-01-19T07:48:41.534Z,100121.00
2023-01-19T07:53:43.438Z,100125.22
2023-01-19T07:58:44.926Z,100134.47
2023-01-19T08:03:48.869Z,100144.72
2023-01-19T08:08:50.697Z,100143.03
2023-01-19T08:13:52.127Z,100140.97
2023-01-19T08:18:53.554Z,100152.16
2023-01-19T08:23:56.809Z,100168.50
2023-01-19T08:29:02.224Z,100175.84
2023-01-19T08:34:03.722Z,100176.34
2023-01-19T08:39:05.246Z,100184.59
2023-01-19T08:44:06.867Z,100178.84
2023-01-19T08:49:08.677Z,100187.50
2023-01-19T08:54:10.702Z,100188.47
2023-01-19T08:59:13.277Z,100190.34
2023-01-19T09:04:15.525Z,100201.66
2023-01-19T09:09:16.926Z,100214.59
2023-01-19T09:14:18.347Z,100210.69
2023-01-19T09:19:19.788Z,100221.22
2023-01-19T09:24:21.285Z,100232.22
2023-01-19T09:29:22.871Z,100238.75
2023-01-19T09:34:25.570Z,100238.94
2023-01-19T09:39:27.117Z,100240.06
2023-01-19T09:44:34.335Z,100237.34
2023-01-19T09:49:40.505Z,100245.56
2023-01-19T09:54:55.679Z,100257.28
2023-01-19T10:00:00.119Z,100259.94
2023-01-19T10:05:25.781Z,100275.53
2023-01-19T10:10:29.172Z,100290.06
2023-01-19T10:15:45.912Z,100287.03
2023-01-19T10:20:56.084Z,100296.47
2023-01-19T10:26:00.953Z,100299.16
2023-01-19T10:31:05.011Z,100305.28
2023-01-19T10:36:16.771Z,100311.31
2023-01-19T10:41:24.438Z,100311.91
2023-01-19T10:46:34.587Z,100308.25
2023-01-19T10:51:48.404Z,100305.16
2023-01-19T10:57:10.191Z,100309.63
2023-01-19T11:02:18.103Z,100314.31
2023-01-19T11:07:23.163Z,100310.41
2023-01-19T11:12:24.685Z,100306.28
2023-01-19T11:17:26.374Z,100315.69
2023-01-19T11:22:34.739Z,100318.91
2023-01-19T11:27:37.819Z,100313.72
2023-01-19T11:32:39.700Z,100321.16
2023-01-19T11:37:43.278Z,100311.13
2023-01-19T11:42:44.873Z,100327.47
2023-01-19T11:47:51.689Z,100323.81
2023-01-19T11:52:59.035Z,100334.25
2023-01-19T11:58:00.873Z,100336.44
2023-01-19T12:03:08.522Z,100334.50
2023-01-19T12:08:17.660Z,100335.22
2023-01-19T12:13:25.167Z,100337.53
2023-01-19T12:18:51.265Z,100339.63
2023-01-19T12:24:16.315Z,100348.78
2023-01-19T12:29:23.753Z,100353.13
2023-01-19T12:34:25.292Z,100349.91
2023-01-19T12:39:26.741Z,100358.41
2023-01-19T12:44:30.748Z,100363.47
2023-01-19T12:49:42.600Z,100365.75
2023-01-19T12:54:52.058Z,100369.09
2023-01-19T12:59:59.788Z,100367.41
2023-01-19T13:05:32.683Z,100367.13
2023-01-19T13:10:59.449Z,100375.16
2023-01-19T13:16:19.528Z,100373.50
2023-01-19T13:21:36.642Z,100364.72
2023-01-19T13:26:42.366Z,100364.81
2023-01-19T13:31:45.829Z,100368.38
2023-01-19T13:36:52.561Z,100369.34
2023-01-19T13:41:58.084Z,100368.38
2023-01-19T13:47:03.001Z,100384.34
2023-01-19T13:52:21.080Z,100384.34
2023-01-19T13:57:43.100Z,100392.16
2023-01-19T14:03:13.768Z,100388.56
2023-01-19T14:08:18.041Z,100395.31
2023-01-19T14:13:21.314Z,100392.78
2023-01-19T14:18:30.219Z,100392.47
2023-01-19T14:24:19.825Z,100408.03
2023-01-19T14:29:26.801Z,100399.97
2023-01-19T14:34:45.372Z,100403.91
2023-01-19T14:40:10.721Z,100408.03
2023-01-19T14:45:21.287Z,100420.00
2023-01-19T14:50:39.073Z,100421.53
2023-01-19T14:55:49.083Z,100420.16
2023-01-19T15:00:55.609Z,100421.91
2023-01-19T15:05:59.022Z,100423.06
2023-01-19T15:11:10.518Z,100420.84
2023-01-19T15:16:12.129Z,100428.94
2023-01-19T15:21:15.538Z,100430.56
2023-01-19T15:26:22.805Z,100450.22
2023-01-19T15:31:26.145Z,100456.88
2023-01-19T15:36:27.629Z,100465.22
2023-01-19T15:41:32.100Z,100469.13
2023-01-19T15:46:33.732Z,100476.53
2023-01-19T15:51:35.402Z,100491.03
2023-01-19T15:56:39.474Z,100494.19
2023-01-19T16:01:42.005Z,100502.97
2023-01-19T16:06:43.689Z,100502.69
2023-01-19T16:11:45.340Z,100510.78
2023-01-19T16:16:47.145Z,100506.28
2023-01-19T16:21:48.704Z,100514.44
2023-01-19T16:26:51.420Z,100516.25
2023-01-19T16:31:53.597Z,100518.28
2023-01-19T16:36:55.213Z,100519.38
2023-01-19T16:41:56.857Z,100531.91
2023-01-19T16:46:59.337Z,100539.41
2023-01-19T16:52:01.181Z,100538.72
2023-01-19T16:57:02.947Z,100547.63
2023-01-19T17:02:04.674Z,100553.22
2023-01-19T17:07:07.556Z,100562.16
2023-01-19T17:12:09.753Z,100556.72
2023-01-19T17:17:11.507Z,100562.94
2023-01-19T17:22:14.427Z,100567.56
2023-01-19T17:27:17.387Z,100570.38
2023-01-19T17:32:18.947Z,100566.59
2023-01-19T17:37:20.470Z,100572.84
2023-01-19T17:42:21.884Z,100567.22
2023-01-19T17:47:25.935Z,100578.44
2023-01-19T17:52:27.399Z,100574.97
2023-01-19T17:57:31.649Z,100578.28
2023-01-19T18:02:34.380Z,100588.94
2023-01-19T18:07:35.822Z,100590.06
2023-01-19T18:12:37.608Z,100589.91
2023-01-19T18:17:39.729Z,100589.66
2023-01-19T18:22:42.683Z,100590.47
2023-01-19T18:27:46.362Z,100592.75
2023-01-19T18:32:48.197Z,100601.41
2023-01-19T18:37:49.617Z,100593.13
2023-01-19T18:42:51.154Z,100595.13
2023-01-19T18:47:52.656Z,100600.28
2023-01-19T18:52:54.405Z,100609.72
2023-01-19T18:57:55.808Z,100601.44
2023-01-19T19:03:12.696Z,100607.31
2023-01-19T19:08:14.301Z,100612.81
2023-01-19T19:13:19.554Z,100612.88
2023-01-19T19:18:21.185Z,100610.88
2023-01-19T19:23:22.588Z,100620.56
2023-01-19T19:28:24.081Z,100606.81
2023-01-19T19:33:28.216Z,100618.22
2023-01-19T19:38:29.802Z,100629.88
2023-01-19T19:43:32.838Z,100625.25
2023-01-19T19:48:36.670Z,100638.22
2023-01-19T19:53:40.309Z,100657.75
2023-01-19T19:58:42.979Z,100651.06
2023-01-19T20:03:44.933Z,100652.22
2023-01-19T20:08:47.728Z,100651.19
2023-01-19T20:13:51.032Z,100670.00
2023-01-19T20:18:55.273Z,100665.03
2023-01-19T20:24:01.008Z,100674.72
2023-01-19T20:29:06.866Z,100699.00
2023-01-19T20:34:10.595Z,100695.22
2023-01-19T20:39:13.183Z,100701.25
2023-01-19T20:44:21.272Z,100702.66
2023-01-19T20:49:24.851Z,100716.66
2023-01-19T20:54:27.988Z,100723.34
2023-01-19T20:59:29.596Z,100724.28
2023-01-19T21:04:31.210Z,100734.72
2023-01-19T21:09:32.660Z,100733.59
2023-01-19T21:14:34.118Z,100731.84
2023-01-19T21:19:35.571Z,100728.94
2023-01-19T21:24:37.087Z,100738.41
2023-01-19T21:29:42.267Z,100736.19
2023-01-19T21:34:45.341Z,100740.41
2023-01-19T21:39:47.066Z,100750.56
2023-01-19T21:44:51.620Z,100751.38
2023-01-19T21:49:53.023Z,100757.50
2023-01-19T21:54:55.538Z,100759.34
2023-01-19T21:59:57.957Z,100756.97
2023-01-19T22:04:59.634Z,100759.25
2023-01-19T22:10:01.256Z,100766.09
2023-01-19T22:15:04.842Z,100754.25
2023-01-19T22:20:07.028Z,100761.09
2023-01-19T22:25:08.953Z,100763.88
2023-01-19T22:30:10.995Z,100759.69
2023-01-19T22:35:15.313Z,100772.91
2023-01-19T22:40:17.564Z,100777.03
2023-01-19T22:45:19.107Z,100783.69
2023-01-19T22:50:21.622Z,100785.03
2023-01-19T22:55:23.145Z,100777.72
2023-01-19T23:00:24.597Z,100785.47
2023-01-19T23:05:26.068Z,100783.50
2023-01-19T23:10:28.209Z,100795.06
2023-01-19T23:15:29.689Z,100800.59
2023-01-19T23:20:31.087Z,100792.28
2023-01-19T23:25:32.556Z,100802.81
2023-01-19T23:30:34.101Z,100802.00
2023-01-19T23:35:35.686Z,100803.59
2023-01-19T23:40:38.519Z,100799.38
2023-01-19T23:45:40.051Z,100812.88
2023-01-19T23:50:41.515Z,100800.78
2023-01-19T23:55:42.999Z,100799.91
